createdAt,value
2024-05-09T00:00:35.753Z,11.07
2024-05-09T00:03:10.512Z,11.27
2024-05-09T00:05:39.671Z,10.70
2024-05-09T00:08:06.860Z,9.93
2024-05-09T00:10:37.362Z,10.27
2024-05-09T00:13:06.628Z,10.63
2024-05-09T00:15:34.168Z,10.27
2024-05-09T00:18:01.927Z,11.50
2024-05-09T00:20:36.901Z,10.68
2024-05-09T00:23:07.516Z,9.48
2024-05-09T00:25:34.646Z,11.32
2024-05-09T00:28:01.390Z,11.73
2024-05-09T00:30:33.863Z,10.50
2024-05-09T00:33:04.017Z,10.50
2024-05-09T00:35:35.800Z,10.30
2024-05-09T00:38:02.607Z,10.43
2024-05-09T00:40:40.257Z,9.38
2024-05-09T00:43:10.228Z,10.17
2024-05-09T00:45:37.284Z,11.05
2024-05-09T00:48:07.469Z,9.75
2024-05-09T00:50:38.077Z,12.30
2024-05-09T00:53:11.671Z,10.93
2024-05-09T00:55:39.346Z,11.97
2024-05-09T00:58:09.251Z,11.57
2024-05-09T01:00:39.748Z,11.55
2024-05-09T01:03:10.055Z,12.30
2024-05-09T01:05:39.599Z,11.30
2024-05-09T01:08:07.292Z,11.83
2024-05-09T01:10:35.507Z,10.63
2024-05-09T01:13:04.249Z,10.73
2024-05-09T01:15:30.993Z,12.70
2024-05-09T01:17:58.770Z,10.68
2024-05-09T01:20:36.751Z,11.47
2024-05-09T01:23:10.015Z,10.52
2024-05-09T01:25:37.074Z,11.23
2024-05-09T01:28:03.909Z,12.60
2024-05-09T01:30:34.991Z,12.43
2024-05-09T01:33:05.274Z,13.47
2024-05-09T01:35:32.993Z,13.63
2024-05-09T01:37:59.643Z,11.02
2024-05-09T01:40:36.180Z,11.82
2024-05-09T01:43:06.078Z,12.73
2024-05-09T01:45:33.090Z,12.00
2024-05-09T01:48:00.011Z,11.63
2024-05-09T01:50:36.900Z,11.70
2024-05-09T01:53:07.337Z,10.82
2024-05-09T01:55:34.193Z,11.10
2024-05-09T01:58:00.900Z,11.90
2024-05-09T02:00:37.957Z,11.93
2024-05-09T02:03:15.363Z,11.75
2024-05-09T02:05:48.363Z,12.77
2024-05-09T02:08:19.917Z,12.13
2024-05-09T02:10:48.203Z,12.03
2024-05-09T02:13:15.818Z,12.57
2024-05-09T02:15:42.631Z,11.93
2024-05-09T02:18:10.289Z,12.93
2024-05-09T02:20:44.181Z,11.68
2024-05-09T02:23:11.040Z,13.47
2024-05-09T02:25:37.807Z,14.70
2024-05-09T02:28:04.697Z,14.88
2024-05-09T02:30:39.313Z,14.90
2024-05-09T02:33:13.353Z,16.92
2024-05-09T02:35:41.451Z,14.53
2024-05-09T02:38:09.934Z,14.07
2024-05-09T02:40:38.959Z,13.77
2024-05-09T02:43:08.565Z,13.02
2024-05-09T02:45:38.101Z,14.93
2024-05-09T02:48:05.480Z,14.80
2024-05-09T02:50:37.936Z,13.70
2024-05-09T02:53:07.970Z,14.52
2024-05-09T02:55:35.080Z,14.23
2024-05-09T02:58:01.693Z,14.65
2024-05-09T03:00:36.794Z,14.88
2024-05-09T03:03:08.584Z,13.90
2024-05-09T03:05:36.624Z,16.95
2024-05-09T03:08:03.942Z,13.73
2024-05-09T03:10:36.452Z,14.52
2024-05-09T03:13:16.577Z,14.47
2024-05-09T03:15:46.673Z,14.40
2024-05-09T03:18:13.756Z,15.15
2024-05-09T03:20:40.682Z,15.68
2024-05-09T03:23:09.361Z,13.50
2024-05-09T03:25:36.953Z,14.13
2024-05-09T03:28:03.767Z,14.32
2024-05-09T03:30:39.319Z,14.55
2024-05-09T03:33:13.952Z,14.45
2024-05-09T03:35:42.776Z,14.55
2024-05-09T03:38:09.701Z,14.53
2024-05-09T03:40:36.399Z,15.95
2024-05-09T03:43:03.016Z,15.68
2024-05-09T03:45:29.615Z,14.48
2024-05-09T03:47:56.528Z,13.90
2024-05-09T03:50:30.061Z,15.97
2024-05-09T03:53:01.782Z,18.08
2024-05-09T03:55:28.600Z,14.75
2024-05-09T03:57:55.302Z,14.75
2024-05-09T04:00:30.795Z,16.80
2024-05-09T04:03:04.128Z,15.27
2024-05-09T04:05:31.551Z,14.25
2024-05-09T04:07:58.362Z,16.05
2024-05-09T04:10:32.408Z,15.60
2024-05-09T04:13:00.795Z,15.75
2024-05-09T04:15:27.474Z,14.90
2024-05-09T04:17:54.188Z,15.45
2024-05-09T04:20:32.848Z,15.77
2024-05-09T04:23:06.023Z,15.80
2024-05-09T04:25:32.818Z,15.98
2024-05-09T04:27:59.483Z,16.43
2024-05-09T04:30:34.887Z,16.38
2024-05-09T04:33:06.945Z,16.20
2024-05-09T04:35:34.744Z,15.23
2024-05-09T04:38:01.561Z,13.85
2024-05-09T04:40:33.536Z,12.63
2024-05-09T04:43:06.885Z,15.65
2024-05-09T04:45:33.968Z,15.60
2024-05-09T04:48:01.284Z,13.57
2024-05-09T04:50:35.977Z,14.45
2024-05-09T04:53:06.463Z,15.23
2024-05-09T04:55:33.902Z,14.35
2024-05-09T04:58:01.144Z,16.63
2024-05-09T05:00:35.580Z,15.35
2024-05-09T05:03:07.232Z,13.45
2024-05-09T05:05:37.899Z,15.07
2024-05-09T05:08:05.285Z,16.85
2024-05-09T05:10:36.107Z,15.65
2024-05-09T05:13:21.084Z,16.05
2024-05-09T05:15:57.355Z,15.43
2024-05-09T05:18:26.498Z,16.70
2024-05-09T05:20:54.757Z,16.55
2024-05-09T05:23:28.301Z,16.73
2024-05-09T05:25:55.395Z,16.98
2024-05-09T05:28:22.952Z,17.38
2024-05-09T05:30:49.808Z,16.40
2024-05-09T05:33:20.303Z,19.08
2024-05-09T05:35:47.267Z,19.42
2024-05-09T05:38:14.232Z,18.95
2024-05-09T05:40:41.372Z,18.50
2024-05-09T05:43:10.044Z,18.07
2024-05-09T05:45:39.474Z,18.40
2024-05-09T05:48:07.336Z,18.75
2024-05-09T05:50:37.138Z,20.42
2024-05-09T05:53:06.640Z,21.55
2024-05-09T05:55:33.576Z,21.17
2024-05-09T05:58:01.758Z,18.63
2024-05-09T06:00:34.836Z,19.90
2024-05-09T06:03:05.713Z,21.20
2024-05-09T06:05:32.926Z,21.55
2024-05-09T06:07:59.792Z,21.70
2024-05-09T06:10:34.978Z,23.02
2024-05-09T06:13:05.701Z,23.50
2024-05-09T06:15:32.336Z,21.20
2024-05-09T06:17:59.468Z,22.08
2024-05-09T06:20:34.737Z,20.33
2024-05-09T06:23:04.281Z,20.40
2024-05-09T06:25:31.043Z,23.52
2024-05-09T06:27:57.611Z,19.77
2024-05-09T06:30:30.805Z,20.48
2024-05-09T06:33:06.037Z,19.73
2024-05-09T06:35:33.640Z,20.90
2024-05-09T06:38:00.969Z,18.33
2024-05-09T06:40:36.273Z,18.83
2024-05-09T06:43:05.798Z,19.50
2024-05-09T06:45:32.600Z,19.37
2024-05-09T06:47:59.344Z,17.58
2024-05-09T06:50:28.660Z,16.88
2024-05-09T06:53:02.330Z,18.27
2024-05-09T06:55:29.171Z,17.00
2024-05-09T06:57:55.966Z,17.37
2024-05-09T07:00:30.291Z,15.30
2024-05-09T07:03:12.790Z,16.75
2024-05-09T07:05:40.972Z,17.38
2024-05-09T07:08:08.324Z,19.23
2024-05-09T07:10:36.279Z,18.10
2024-05-09T07:13:07.642Z,20.42
2024-05-09T07:15:34.242Z,17.02
2024-05-09T07:18:00.974Z,17.23
2024-05-09T07:20:34.164Z,17.17
2024-05-09T07:23:03.143Z,18.13
2024-05-09T07:25:30.486Z,17.58
2024-05-09T07:27:57.215Z,18.83
2024-05-09T07:30:32.545Z,18.95
2024-05-09T07:33:03.303Z,16.55
2024-05-09T07:35:56.707Z,14.10
2024-05-09T07:41:14.124Z,16.67
2024-05-09T07:43:41.223Z,11.40
2024-05-09T07:47:13.921Z,9.68
2024-05-09T07:50:34.936Z,10.00
2024-05-09T07:53:20.457Z,11.30
2024-05-09T07:54:52.916Z,12.68
2024-05-09T07:57:19.885Z,12.93
2024-05-09T07:59:46.527Z,11.77
2024-05-09T08:02:14.411Z,11.37
2024-05-09T08:04:41.498Z,11.85
2024-05-09T08:07:08.340Z,9.73
2024-05-09T08:09:38.398Z,12.57
2024-05-09T08:20:35.773Z,11.57
2024-05-09T08:23:10.537Z,11.77
2024-05-09T08:25:37.431Z,12.63
2024-05-09T08:28:05.188Z,15.50
2024-05-09T08:30:36.842Z,13.55
2024-05-09T08:33:06.757Z,13.85
2024-05-09T08:35:35.049Z,14.15
2024-05-09T08:38:07.343Z,15.82
2024-05-09T08:40:36.869Z,14.53
2024-05-09T08:43:11.220Z,13.27
2024-05-09T08:45:44.338Z,14.30
2024-05-09T08:48:14.343Z,13.05
2024-05-09T08:50:42.068Z,13.25
2024-05-09T08:53:09.281Z,13.57
2024-05-09T08:55:40.411Z,13.68
2024-05-09T08:58:12.768Z,14.50
2024-05-09T09:00:41.996Z,14.07
2024-05-09T09:03:10.711Z,12.55
2024-05-09T09:05:39.563Z,12.33
2024-05-09T09:08:16.466Z,14.40
2024-05-09T09:10:43.512Z,11.55
2024-05-09T09:13:11.318Z,11.35
2024-05-09T09:15:48.237Z,12.35
2024-05-09T09:18:16.691Z,12.97
2024-05-09T09:20:44.273Z,13.35
2024-05-09T09:23:10.925Z,13.80
2024-05-09T09:25:40.805Z,14.73
2024-05-09T09:28:08.228Z,16.05
2024-05-09T09:30:38.546Z,19.13
2024-05-09T09:33:06.676Z,13.23
2024-05-09T09:35:36.478Z,14.10
2024-05-09T09:38:04.568Z,15.93
2024-05-09T09:40:37.315Z,14.05
2024-05-09T09:43:14.287Z,15.00
2024-05-09T09:45:43.246Z,12.63
2024-05-09T09:48:10.688Z,13.68
2024-05-09T09:50:38.714Z,14.13
2024-05-09T09:53:07.950Z,14.90
2024-05-09T09:55:35.634Z,14.07
2024-05-09T09:58:04.635Z,13.75
2024-05-09T10:00:33.718Z,12.95
2024-05-09T10:03:01.701Z,10.80
2024-05-09T10:05:29.081Z,11.40
2024-05-09T10:07:57.380Z,13.67
2024-05-09T10:10:32.073Z,12.32
2024-05-09T10:13:01.245Z,13.85
2024-05-09T10:15:28.192Z,12.30
2024-05-09T10:18:04.241Z,15.65
2024-05-09T10:20:44.207Z,13.83
2024-05-09T10:23:44.301Z,16.48
2024-05-09T10:26:10.866Z,12.25
2024-05-09T10:28:44.040Z,13.88
2024-05-09T10:31:12.957Z,12.77
2024-05-09T10:33:51.446Z,8.10
2024-05-09T10:36:21.008Z,13.00
2024-05-09T10:38:49.130Z,12.93
2024-05-09T10:41:19.919Z,13.15
2024-05-09T10:43:47.458Z,12.10
2024-05-09T10:46:14.936Z,12.83
2024-05-09T10:48:43.483Z,16.15
2024-05-09T10:51:10.797Z,13.30
2024-05-09T10:53:42.372Z,13.77
2024-05-09T10:56:09.349Z,13.02
2024-05-09T10:58:36.174Z,12.73
2024-05-09T11:01:06.440Z,12.23
2024-05-09T11:03:34.500Z,11.85
2024-05-09T11:06:01.419Z,11.00
2024-05-09T11:08:30.316Z,13.52
2024-05-09T11:10:59.341Z,12.87
2024-05-09T11:13:33.502Z,13.65
2024-05-09T11:16:00.965Z,12.52
2024-05-09T11:18:33.471Z,13.00
2024-05-09T11:21:02.988Z,15.85
2024-05-09T11:23:32.621Z,14.63
2024-05-09T11:25:59.419Z,12.98
2024-05-09T11:28:28.705Z,14.98
2024-05-09T11:31:05.563Z,13.00
2024-05-09T11:33:32.323Z,14.27
2024-05-09T11:35:59.070Z,13.13
2024-05-09T11:38:25.681Z,16.15
2024-05-09T11:40:52.342Z,14.02
2024-05-09T11:43:21.723Z,16.27
2024-05-09T11:45:48.497Z,16.50
2024-05-09T11:48:15.412Z,15.43
2024-05-09T11:50:42.271Z,14.80
2024-05-09T11:53:08.889Z,14.23
2024-05-09T11:55:36.592Z,14.35
2024-05-09T11:58:04.007Z,14.98
2024-05-09T12:00:36.811Z,14.93
2024-05-09T12:03:05.778Z,17.90
2024-05-09T12:05:33.776Z,15.45
2024-05-09T12:08:01.084Z,14.07
2024-05-09T12:10:33.221Z,15.50
2024-05-09T12:13:02.814Z,15.97
2024-05-09T12:15:30.179Z,13.40
2024-05-09T12:17:59.005Z,14.05
2024-05-09T12:20:35.419Z,13.98
2024-05-09T12:23:06.818Z,15.38
2024-05-09T12:25:44.274Z,14.23
2024-05-09T12:28:11.068Z,14.32
2024-05-09T12:30:40.149Z,14.88
2024-05-09T12:33:09.836Z,15.88
2024-05-09T12:35:36.963Z,15.77
2024-05-09T12:38:04.072Z,18.53
2024-05-09T12:40:36.608Z,15.95
2024-05-09T12:43:07.918Z,14.30
2024-05-09T12:45:35.885Z,14.27
2024-05-09T12:48:04.541Z,14.20
2024-05-09T12:50:33.597Z,14.57
2024-05-09T12:53:02.394Z,16.13
2024-05-09T12:55:33.388Z,15.55
2024-05-09T12:58:04.644Z,14.85
2024-05-09T13:00:34.030Z,15.45
2024-05-09T13:03:01.554Z,15.47
2024-05-09T13:05:28.826Z,15.50
2024-05-09T13:07:58.547Z,13.95
2024-05-09T13:10:31.320Z,13.15
2024-05-09T13:13:00.911Z,15.02
2024-05-09T13:15:28.543Z,16.17
2024-05-09T13:17:58.124Z,16.23
2024-05-09T13:20:32.663Z,13.48
2024-05-09T13:23:03.235Z,16.23
2024-05-09T13:25:29.971Z,18.88
2024-05-09T13:27:57.468Z,16.93
2024-05-09T13:30:34.018Z,15.07
2024-05-09T13:33:06.629Z,15.55
2024-05-09T13:35:35.067Z,17.15
2024-05-09T13:38:02.735Z,15.98
2024-05-09T13:40:33.905Z,15.43
2024-05-09T13:43:03.511Z,16.00
2024-05-09T13:45:30.372Z,16.80
2024-05-09T13:47:57.430Z,17.65
2024-05-09T13:50:33.048Z,16.95
2024-05-09T13:53:02.718Z,16.13
2024-05-09T13:55:29.414Z,17.30
2024-05-09T13:57:56.727Z,17.17
2024-05-09T14:00:37.678Z,18.58
2024-05-09T14:03:10.162Z,19.25
2024-05-09T14:05:37.053Z,16.43
2024-05-09T14:08:04.185Z,17.42
2024-05-09T14:10:32.030Z,17.20
2024-05-09T14:13:00.249Z,18.83
2024-05-09T14:15:27.042Z,16.98
2024-05-09T14:17:54.602Z,16.63
2024-05-09T14:22:50.878Z,17.95
2024-05-09T14:25:17.622Z,17.33
2024-05-09T14:27:44.430Z,16.92
2024-05-09T14:30:18.256Z,16.57
2024-05-09T14:32:52.891Z,16.02
2024-05-09T14:35:19.721Z,15.25
2024-05-09T14:37:46.422Z,18.60
2024-05-09T14:40:30.684Z,17.67
2024-05-09T14:43:04.435Z,17.90
2024-05-09T14:45:32.147Z,17.75
2024-05-09T14:47:58.868Z,17.48
2024-05-09T14:50:34.631Z,18.35
2024-05-09T14:53:05.906Z,22.55
2024-05-09T14:55:35.621Z,25.27
2024-05-09T14:58:03.262Z,22.40
2024-05-09T15:00:35.597Z,24.70
2024-05-09T15:03:03.977Z,24.00
2024-05-09T15:05:30.821Z,20.52
2024-05-09T15:08:00.190Z,26.37
2024-05-09T15:10:34.140Z,24.73
2024-05-09T15:13:03.465Z,25.52
2024-05-09T15:15:30.369Z,24.08
2024-05-09T15:17:57.573Z,23.88
2024-05-09T15:20:31.617Z,24.77
2024-05-09T15:23:02.562Z,23.23
2024-05-09T15:25:29.422Z,22.42
2024-05-09T15:27:56.341Z,22.95
2024-05-09T15:32:52.863Z,21.20
2024-05-09T15:35:20.099Z,23.85
2024-05-09T15:37:48.403Z,23.13
2024-05-09T15:40:26.255Z,21.70
2024-05-09T15:43:02.075Z,23.90
2024-05-09T15:45:32.064Z,24.40
2024-05-09T15:47:59.316Z,24.27
2024-05-09T15:50:36.501Z,23.58
2024-05-09T15:53:07.454Z,22.65
2024-05-09T15:55:35.007Z,24.83
2024-05-09T15:58:03.234Z,21.73
2024-05-09T16:00:37.815Z,23.70
2024-05-09T16:03:08.646Z,22.52
2024-05-09T16:05:36.615Z,23.65
2024-05-09T16:08:03.700Z,22.92
2024-05-09T16:10:33.114Z,21.57
2024-05-09T16:13:02.080Z,25.50
2024-05-09T16:15:29.245Z,22.08
2024-05-09T16:17:55.989Z,24.25
2024-05-09T16:20:34.028Z,22.17
2024-05-09T16:23:06.098Z,22.37
2024-05-09T16:25:32.774Z,22.38
2024-05-09T16:27:59.800Z,26.00
2024-05-09T16:30:33.748Z,21.92
2024-05-09T16:33:03.233Z,24.42
2024-05-09T16:35:30.313Z,21.03
2024-05-09T16:37:57.248Z,21.60
2024-05-09T16:40:34.319Z,26.63
2024-05-09T16:43:06.068Z,23.08
2024-05-09T16:45:33.290Z,25.80
2024-05-09T16:48:00.707Z,23.40
2024-05-09T16:50:33.144Z,24.25
2024-05-09T16:53:02.870Z,24.50
2024-05-09T16:55:32.777Z,24.70
2024-05-09T16:57:59.794Z,26.00
2024-05-09T17:00:36.354Z,28.73
2024-05-09T17:03:09.781Z,27.75
2024-05-09T17:05:37.209Z,29.20
2024-05-09T17:08:04.640Z,27.83
2024-05-09T17:10:34.149Z,27.98
2024-05-09T17:13:03.874Z,28.63
2024-05-09T17:15:32.312Z,26.00
2024-05-09T17:17:59.256Z,28.60
2024-05-09T17:20:32.506Z,26.75
2024-05-09T17:23:02.727Z,27.75
2024-05-09T17:25:29.678Z,25.90
2024-05-09T17:27:56.961Z,26.85
2024-05-09T17:30:32.053Z,27.25
2024-05-09T17:33:03.827Z,27.60
2024-05-09T17:35:31.682Z,25.58
2024-05-09T17:37:59.735Z,26.80
2024-05-09T17:40:32.711Z,26.63
2024-05-09T17:43:03.000Z,24.23
2024-05-09T17:45:29.814Z,25.85
2024-05-09T17:47:56.849Z,22.75
2024-05-09T17:50:30.384Z,23.47
2024-05-09T17:53:01.357Z,23.83
2024-05-09T17:55:28.614Z,21.65
2024-05-09T17:57:55.708Z,24.52
2024-05-09T18:00:32.886Z,23.30
2024-05-09T18:03:05.482Z,22.23
2024-05-09T18:05:32.528Z,23.50
2024-05-09T18:07:59.348Z,21.25
2024-05-09T18:10:33.138Z,23.40
2024-05-09T18:13:05.453Z,21.23
2024-05-09T18:15:32.624Z,23.43
2024-05-09T18:17:59.753Z,22.65
2024-05-09T18:20:36.668Z,23.63
2024-05-09T18:23:08.901Z,23.40
2024-05-09T18:25:35.513Z,23.33
2024-05-09T18:28:03.030Z,23.53
2024-05-09T18:30:34.771Z,23.48
2024-05-09T18:33:04.126Z,23.67
2024-05-09T18:35:31.211Z,27.02
2024-05-09T18:37:57.826Z,28.75
2024-05-09T18:40:32.607Z,28.50
2024-05-09T18:43:03.501Z,25.60
2024-05-09T18:45:30.619Z,28.20
2024-05-09T18:47:57.889Z,26.67
2024-05-09T18:50:33.738Z,23.38
2024-05-09T18:53:05.857Z,26.50
2024-05-09T18:55:32.639Z,26.02
2024-05-09T18:57:59.401Z,25.95
2024-05-09T19:00:33.990Z,25.13
2024-05-09T19:03:05.993Z,25.83
2024-05-09T19:05:35.062Z,26.60
2024-05-09T19:08:02.391Z,27.00
2024-05-09T19:10:34.063Z,26.70
2024-05-09T19:13:05.423Z,25.63
2024-05-09T19:15:35.632Z,25.65
2024-05-09T19:18:02.741Z,27.70
2024-05-09T19:20:34.237Z,27.85
2024-05-09T19:23:02.452Z,28.05
2024-05-09T19:25:29.214Z,27.48
2024-05-09T19:27:55.815Z,26.08
2024-05-09T19:30:30.195Z,27.20
2024-05-09T19:33:05.022Z,29.95
2024-05-09T19:35:32.306Z,27.08
2024-05-09T19:37:59.020Z,26.38
2024-05-09T19:40:31.310Z,28.23
2024-05-09T19:43:01.145Z,25.27
2024-05-09T19:45:28.246Z,27.48
2024-05-09T19:47:55.192Z,27.45
2024-05-09T19:50:30.285Z,28.27
2024-05-09T19:53:03.249Z,25.70
2024-05-09T19:55:29.933Z,26.20
2024-05-09T19:57:56.941Z,28.08
2024-05-09T20:00:32.310Z,27.00
2024-05-09T20:03:02.334Z,26.15
2024-05-09T20:05:30.958Z,27.70
2024-05-09T20:07:57.889Z,25.73
2024-05-09T20:10:29.847Z,25.83
2024-05-09T20:12:59.514Z,24.63
2024-05-09T20:15:26.275Z,26.85
2024-05-09T20:17:53.371Z,25.58
2024-05-09T20:20:28.419Z,25.23
2024-05-09T20:23:03.146Z,28.45
2024-05-09T20:25:29.799Z,26.77
2024-05-09T20:27:56.450Z,26.58
2024-05-09T20:30:33.835Z,24.20
2024-05-09T20:33:07.027Z,26.53
2024-05-09T20:35:35.277Z,25.13
2024-05-09T20:38:03.155Z,27.50
2024-05-09T20:40:34.731Z,29.80
2024-05-09T20:43:04.858Z,25.52
2024-05-09T20:45:31.774Z,27.20
2024-05-09T20:47:58.631Z,25.65
2024-05-09T20:50:35.613Z,29.25
2024-05-09T20:53:08.708Z,27.42
2024-05-09T20:55:35.409Z,26.92
2024-05-09T20:58:02.076Z,27.70
2024-05-09T21:00:35.518Z,27.38
2024-05-09T21:03:07.333Z,30.02
2024-05-09T21:05:35.067Z,26.65
2024-05-09T21:08:02.307Z,26.60
2024-05-09T21:10:32.830Z,28.07
2024-05-09T21:13:02.571Z,29.50
2024-05-09T21:15:29.985Z,29.73
2024-05-09T21:17:56.608Z,28.42
2024-05-09T21:20:28.905Z,36.88
2024-05-09T21:22:58.613Z,29.13
2024-05-09T21:25:25.619Z,30.38
2024-05-09T21:27:52.536Z,28.50
2024-05-09T21:30:28.457Z,28.88
2024-05-09T21:33:05.138Z,27.67
2024-05-09T21:35:32.022Z,27.43
2024-05-09T21:37:58.583Z,28.95
2024-05-09T21:40:31.630Z,28.27
2024-05-09T21:43:01.568Z,27.90
2024-05-09T21:45:28.392Z,28.75
2024-05-09T21:47:55.226Z,31.70
2024-05-09T21:50:28.207Z,29.77
2024-05-09T21:53:02.023Z,28.50
2024-05-09T21:55:28.615Z,29.65
2024-05-09T21:57:56.584Z,31.40
2024-05-09T22:00:29.229Z,29.33
2024-05-09T22:03:02.541Z,32.58
2024-05-09T22:05:29.625Z,27.88
2024-05-09T22:07:56.981Z,31.80
2024-05-09T22:10:30.509Z,29.90
2024-05-09T22:13:00.659Z,28.77
2024-05-09T22:15:27.288Z,28.52
2024-05-09T22:17:55.716Z,27.60
2024-05-09T22:20:29.265Z,28.55
2024-05-09T22:23:03.347Z,29.95
2024-05-09T22:25:31.159Z,26.33
2024-05-09T22:27:58.977Z,30.17
2024-05-09T22:30:34.160Z,28.60
2024-05-09T22:33:05.541Z,26.13
2024-05-09T22:35:32.439Z,27.27
2024-05-09T22:37:59.128Z,28.40
2024-05-09T22:40:37.908Z,27.63
2024-05-09T22:43:12.593Z,28.02
2024-05-09T22:45:39.466Z,30.70
2024-05-09T22:48:07.085Z,27.25
2024-05-09T22:50:34.083Z,28.97
2024-05-09T22:53:01.073Z,27.30
2024-05-09T22:55:27.815Z,28.27
2024-05-09T22:57:54.430Z,27.52
2024-05-09T23:00:29.287Z,31.30
2024-05-09T23:03:02.420Z,29.20
2024-05-09T23:05:29.838Z,28.65
2024-05-09T23:07:56.619Z,26.33
2024-05-09T23:10:31.124Z,31.77
2024-05-09T23:13:02.244Z,29.85
2024-05-09T23:15:29.060Z,28.57
2024-05-09T23:17:55.924Z,28.50
2024-05-09T23:20:33.203Z,30.55
2024-05-09T23:23:05.136Z,27.45
2024-05-09T23:25:31.755Z,30.90
2024-05-09T23:27:58.812Z,30.43
2024-05-09T23:30:33.722Z,27.27
2024-05-09T23:33:05.784Z,27.40
2024-05-09T23:35:32.582Z,27.85
2024-05-09T23:37:59.491Z,28.23
2024-05-09T23:40:36.922Z,30.00
2024-05-09T23:43:07.353Z,31.08
2024-05-09T23:45:34.490Z,26.95
2024-05-09T23:48:01.514Z,28.80
2024-05-09T23:50:34.565Z,26.75
2024-05-09T23:53:04.575Z,27.87
2024-05-09T23:55:32.233Z,27.00
2024-05-09T23:57:59.348Z,26.00
